Edo Seaplane Base

4NY2 · 纽约州, 美国

罗盘
风向 的 风向 160° Edo Seaplane Base 18/36
风: 10 kt, 3 beaufort

9 kt

3 kt
改变
0 ft 6.000 12.000 18.000 24.000 30.000
Cloud Cloud
FEW 6.000
Cloud Cloud
FEW 20.000
Cloud Cloud Cloud Cloud
SCT 25.000
METAR KLGA 202251Z 16010KT 10SM FEW060 FEW200 SCT250 30/17 A3019 RMK AO2 SLP224 T03000167

METAR Edo Seaplane Base - 4NY2

Edo Seaplane Base是,美国中的水上飞机基地。 该机场位于纬度40,78343和经度-73,86625。 该机场有3条跑道: 18/36, 5/23 和 14/32. 这个机场没有ICAO代码,我们使用US-7740作为参考。 该机场的本地机场标识(FAA LID)为4NY2。 机场在New York FIR中。

该航空气象观测是针对La Guardia Airport在2024年6月20日 18:51, 当地时间进行的。

机场观察

风向为160°,速度为10 kt。

可见度为10 mi。

有几云在6.000 ft的高度, 几云在20.000 ft的高度 和 疏云,零星散落的云朵在25.000 ft的高度。 没有观察到天花板。

温度和风寒是30 °C。 热指数为31。 露点为17 °C,相对湿度为46%。 海平面上的气压为30,19 inHg (QNH)。

白天

今天,太阳从05:24升起,在20:30降落。 这适用于Edo Seaplane Base,世界夏令时可能有所不同。 当地时间与世界标准时间之间的时差为-4 小时。 夏令时目前正在进行中。

公司介绍

我们没有关于这个机场的公司信息。

体会

到Vliegles.nl去找飞行课程,跳伞和其他飞行体验。 浏览页面,了解Edo Seaplane Base附近所有可用的活动。 你也可以使用搜索功能来寻找你所在地附近的特定飞行课程、跳伞或其他飞行体验。

跑道

Id 标题 侧风 逆风 侧风 %
18/36 180°-360° 3 kt 9 kt 34 %
5/23 050°-230° 9 kt 3 kt 94 %
14/32 140°-320° 3 kt 9 kt 34 %

逆风成分最大的方向会被突出显示,并用于横风计算。 这并不一定意味着这个方向在使用。

乌云

6.000 ft FEW 几云
20.000 ft FEW 几云
25.000 ft SCT 疏云,零星散落的云朵

温度 & 天气

温度 30,0 °C
露点 16,7 °C
相对湿度 46%
热度指数 31 °C
Kp-index 3 (0-9)

评论

AO2自动气象站,可确定降水类型
SLP224海平面压力为30,19 inHg (30,19 inHg)
T03000167温度为30,0 °C (86,0 °F),露点为16,7 °C (62,1 °F)

白天

日出
05:24
中午
12:57
日落
20:30 (29m)

小工具

你想在你的网站上有一个关于Edo Seaplane Base的当前航空天气(METAR)的小部件吗?

显示HTML代码
报告变更